createdAt,value
2023-04-20T00:01:36.223Z,127.55
2023-04-20T00:04:03.768Z,127.65
2023-04-20T00:06:34.126Z,116.00
2023-04-20T00:09:02.066Z,121.63
2023-04-20T00:11:29.553Z,106.43
2023-04-20T00:13:56.981Z,120.45
2023-04-20T00:16:24.602Z,111.03
2023-04-20T00:18:51.798Z,115.63
2023-04-20T00:21:23.980Z,113.05
2023-04-20T00:23:51.919Z,104.00
2023-04-20T00:26:19.883Z,96.35
2023-04-20T00:28:51.879Z,100.50
2023-04-20T00:31:20.673Z,89.07
2023-04-20T00:33:48.739Z,89.47
2023-04-20T00:36:16.442Z,97.82
2023-04-20T00:38:43.727Z,99.45
2023-04-20T00:41:12.356Z,98.70
2023-04-20T00:43:50.488Z,92.45
2023-04-20T00:46:18.329Z,102.47
2023-04-20T00:48:46.515Z,95.93
2023-04-20T00:51:14.381Z,96.30
2023-04-20T00:53:42.128Z,93.28
2023-04-20T00:56:09.867Z,122.05
2023-04-20T00:58:37.623Z,126.18
2023-04-20T01:01:05.741Z,113.53
2023-04-20T01:03:35.461Z,113.28
2023-04-20T01:06:03.921Z,117.00
2023-04-20T01:08:31.214Z,147.85
2023-04-20T01:10:58.713Z,128.20
2023-04-20T01:13:26.172Z,133.75
2023-04-20T01:15:53.892Z,134.07
2023-04-20T01:18:21.225Z,135.40
2023-04-20T01:20:48.893Z,114.78
2023-04-20T01:23:16.347Z,151.27
2023-04-20T01:25:45.164Z,129.60
2023-04-20T01:28:14.380Z,131.75
2023-04-20T01:30:42.460Z,121.20
2023-04-20T01:33:09.717Z,114.60
2023-04-20T01:35:37.226Z,119.32
2023-04-20T01:38:04.554Z,122.82
2023-04-20T01:40:32.114Z,124.45
2023-04-20T01:43:00.281Z,112.45
2023-04-20T01:45:27.710Z,104.15
2023-04-20T01:47:55.053Z,104.38
2023-04-20T01:50:22.539Z,139.18
2023-04-20T01:52:52.358Z,159.35
2023-04-20T01:55:20.291Z,104.60
2023-04-20T01:57:47.641Z,121.00
2023-04-20T02:00:15.788Z,108.43
2023-04-20T02:02:44.453Z,94.30
2023-04-20T02:05:12.137Z,86.00
2023-04-20T02:07:39.450Z,123.15
2023-04-20T02:10:08.041Z,107.07
2023-04-20T02:12:36.508Z,106.95
2023-04-20T02:15:06.913Z,81.15
2023-04-20T02:17:34.220Z,91.70
2023-04-20T02:20:02.019Z,73.68
2023-04-20T02:22:29.379Z,79.25
2023-04-20T02:24:56.817Z,72.03
2023-04-20T02:27:24.024Z,73.13
2023-04-20T02:29:51.446Z,67.18
2023-04-20T02:32:18.806Z,74.57
2023-04-20T02:34:46.244Z,72.35
2023-04-20T02:37:13.463Z,73.72
2023-04-20T02:39:42.874Z,76.00
2023-04-20T02:42:10.376Z,70.25
2023-04-20T02:44:38.199Z,85.32
2023-04-20T02:47:05.979Z,81.93
2023-04-20T02:49:33.579Z,78.40
2023-04-20T02:52:01.105Z,85.90
2023-04-20T02:54:28.898Z,85.18
2023-04-20T02:56:57.965Z,92.90
2023-04-20T02:59:26.990Z,92.40
2023-04-20T03:02:20.710Z,93.88
2023-04-20T03:04:48.684Z,86.80
2023-04-20T03:07:19.670Z,85.22
2023-04-20T03:09:48.763Z,80.07
2023-04-20T03:12:54.258Z,83.85
2023-04-20T03:15:33.021Z,83.60
2023-04-20T03:18:10.802Z,82.97
2023-04-20T03:20:38.490Z,74.50
2023-04-20T03:23:06.273Z,70.93
2023-04-20T03:25:34.385Z,75.88
2023-04-20T03:28:07.675Z,74.22
2023-04-20T03:30:36.703Z,70.70
2023-04-20T03:33:09.168Z,74.80
2023-04-20T03:35:39.568Z,73.55
2023-04-20T03:38:07.028Z,76.03
2023-04-20T03:40:34.636Z,73.28
2023-04-20T03:43:03.031Z,82.82
2023-04-20T03:45:30.593Z,70.93
2023-04-20T03:47:58.122Z,73.07
2023-04-20T03:50:26.924Z,73.30
2023-04-20T03:52:54.171Z,72.70
2023-04-20T03:55:21.889Z,69.00
2023-04-20T03:57:55.962Z,74.38
2023-04-20T04:00:24.754Z,78.93
2023-04-20T04:02:58.560Z,78.32
2023-04-20T04:05:28.948Z,87.80
2023-04-20T04:07:56.433Z,80.00
2023-04-20T04:10:23.923Z,73.60
2023-04-20T04:12:51.302Z,80.13
2023-04-20T04:15:22.026Z,73.80
2023-04-20T04:18:02.537Z,80.93
2023-04-20T04:20:32.296Z,77.78
2023-04-20T04:23:00.372Z,78.47
2023-04-20T04:25:37.542Z,76.85
2023-04-20T04:28:04.923Z,67.20
2023-04-20T04:30:35.243Z,71.72
2023-04-20T04:33:05.116Z,70.38
2023-04-20T04:35:35.904Z,81.57
2023-04-20T04:38:03.589Z,68.22
2023-04-20T04:40:32.793Z,71.03
2023-04-20T04:43:02.914Z,63.28
2023-04-20T04:45:31.436Z,68.18
2023-04-20T04:47:58.963Z,56.15
2023-04-20T04:50:26.824Z,51.40
2023-04-20T04:52:54.198Z,61.08
2023-04-20T04:55:21.845Z,63.10
2023-04-20T04:57:49.321Z,60.90
2023-04-20T05:00:18.332Z,51.33
2023-04-20T05:02:45.863Z,49.22
2023-04-20T05:05:13.811Z,53.53
2023-04-20T05:07:41.290Z,54.33
2023-04-20T05:10:09.141Z,58.42
2023-04-20T05:12:36.559Z,55.92
2023-04-20T05:15:04.380Z,46.03
2023-04-20T05:17:31.776Z,47.53
2023-04-20T05:19:59.398Z,44.17
2023-04-20T05:22:26.755Z,48.83
2023-04-20T05:24:54.228Z,33.63
2023-04-20T05:27:21.455Z,42.90
2023-04-20T05:29:49.195Z,33.70
2023-04-20T05:32:16.398Z,35.47
2023-04-20T05:34:44.241Z,32.08
2023-04-20T05:37:11.961Z,29.83
2023-04-20T05:39:40.420Z,24.95
2023-04-20T05:42:07.684Z,29.80
2023-04-20T05:44:36.536Z,28.27
2023-04-20T05:47:09.227Z,26.15
2023-04-20T05:49:37.038Z,20.35
2023-04-20T05:52:04.421Z,23.65
2023-04-20T05:54:31.943Z,21.05
2023-04-20T05:56:59.440Z,19.63
2023-04-20T05:59:27.386Z,22.33
2023-04-20T06:01:54.963Z,18.48
2023-04-20T06:04:23.266Z,21.35
2023-04-20T06:06:51.124Z,21.92
2023-04-20T06:09:18.995Z,19.85
2023-04-20T06:11:46.366Z,24.92
2023-04-20T06:14:14.558Z,15.88
2023-04-20T06:16:42.349Z,16.80
2023-04-20T06:19:10.112Z,17.85
2023-04-20T06:21:37.551Z,21.77
2023-04-20T06:24:05.473Z,16.38
2023-04-20T06:26:32.793Z,18.02
2023-04-20T06:29:00.929Z,21.67
2023-04-20T06:31:28.557Z,13.77
2023-04-20T06:33:56.474Z,13.93
2023-04-20T06:36:24.182Z,14.05
2023-04-20T06:38:52.163Z,17.88
2023-04-20T06:41:19.705Z,28.17
2023-04-20T06:43:47.643Z,18.63
2023-04-20T06:46:15.357Z,19.15
2023-04-20T06:48:43.295Z,14.10
2023-04-20T06:51:13.024Z,11.23
2023-04-20T06:53:41.180Z,16.63
2023-04-20T06:56:08.987Z,12.57
2023-04-20T06:58:36.987Z,10.88
2023-04-20T07:01:04.709Z,12.45
2023-04-20T07:03:35.196Z,13.93
2023-04-20T07:06:03.131Z,23.10
2023-04-20T07:08:31.117Z,16.40
2023-04-20T07:10:58.720Z,23.00
2023-04-20T07:13:26.632Z,10.40
2023-04-20T07:15:54.217Z,13.73
2023-04-20T07:18:22.228Z,15.48
2023-04-20T07:20:49.883Z,13.82
2023-04-20T07:23:17.696Z,12.38
2023-04-20T07:25:45.466Z,15.05
2023-04-20T07:28:13.412Z,18.75
2023-04-20T07:30:41.238Z,13.95
2023-04-20T07:33:11.189Z,13.57
2023-04-20T07:35:38.980Z,10.75
2023-04-20T07:38:07.146Z,12.77
2023-04-20T07:40:34.737Z,21.00
2023-04-20T07:43:03.158Z,17.02
2023-04-20T07:45:30.855Z,15.90
2023-04-20T07:48:01.479Z,16.08
2023-04-20T07:50:29.561Z,14.90
2023-04-20T07:52:57.451Z,11.50
2023-04-20T07:55:25.199Z,11.30
2023-04-20T07:57:53.178Z,13.48
2023-04-20T08:00:21.211Z,11.57
2023-04-20T08:02:49.439Z,12.63
2023-04-20T08:05:17.389Z,11.80
2023-04-20T08:07:45.925Z,13.93
2023-04-20T08:10:13.562Z,15.65
2023-04-20T08:12:41.641Z,7.28
2023-04-20T08:15:10.016Z,11.55
2023-04-20T08:17:38.179Z,19.42
2023-04-20T08:20:06.339Z,10.15
2023-04-20T08:22:34.648Z,11.10
2023-04-20T08:25:02.306Z,14.68
2023-04-20T08:27:31.899Z,18.13
2023-04-20T08:29:59.690Z,21.33
2023-04-20T08:32:27.676Z,19.90
2023-04-20T08:34:55.834Z,20.92
2023-04-20T08:37:24.132Z,26.60
2023-04-20T08:39:51.764Z,26.77
2023-04-20T08:42:19.808Z,24.52
2023-04-20T08:44:47.477Z,16.35
2023-04-20T08:47:15.565Z,20.40
2023-04-20T08:49:45.681Z,26.15
2023-04-20T08:52:13.801Z,19.65
2023-04-20T08:54:55.336Z,28.95
2023-04-20T08:57:25.266Z,23.23
2023-04-20T08:59:52.934Z,26.33
2023-04-20T09:02:22.030Z,18.85
2023-04-20T09:04:50.133Z,19.00
2023-04-20T09:07:19.054Z,27.30
2023-04-20T09:09:56.433Z,24.15
2023-04-20T09:12:24.832Z,15.63
2023-04-20T09:14:53.026Z,26.48
2023-04-20T09:17:37.253Z,22.33
2023-04-20T09:20:06.303Z,22.33
2023-04-20T09:22:35.102Z,25.92
2023-04-20T09:25:19.290Z,22.15
2023-04-20T09:27:57.584Z,20.83
2023-04-20T09:30:25.617Z,29.27
2023-04-20T09:33:03.299Z,14.55
2023-04-20T09:35:31.384Z,19.83
2023-04-20T09:37:59.350Z,23.00
2023-04-20T09:40:27.686Z,16.58
2023-04-20T09:42:55.943Z,31.20
2023-04-20T09:45:23.874Z,16.75
2023-04-20T09:47:53.208Z,17.73
2023-04-20T09:50:29.302Z,28.50
2023-04-20T09:55:31.470Z,21.10
2023-04-20T09:57:59.777Z,28.05
2023-04-20T10:00:27.408Z,22.38
2023-04-20T10:02:55.574Z,20.60
2023-04-20T10:05:36.708Z,17.30
2023-04-20T10:08:04.790Z,27.83
2023-04-20T10:10:43.258Z,22.02
2023-04-20T10:13:11.209Z,19.95
2023-04-20T10:15:39.798Z,19.95
2023-04-20T10:18:28.154Z,23.48
2023-04-20T10:21:07.008Z,17.63
2023-04-20T10:23:35.133Z,27.58
2023-04-20T10:26:04.017Z,21.52
2023-04-20T10:28:39.878Z,18.13
2023-04-20T10:31:13.575Z,28.25
2023-04-20T10:33:51.686Z,18.48
2023-04-20T10:36:31.071Z,22.33
2023-04-20T10:38:59.467Z,23.50
2023-04-20T10:41:27.236Z,15.43
2023-04-20T10:43:55.157Z,16.27
2023-04-20T10:46:24.298Z,35.33
2023-04-20T10:49:02.211Z,29.17
2023-04-20T10:51:30.714Z,16.30
2023-04-20T10:53:59.362Z,15.48
2023-04-20T10:56:27.443Z,24.40
2023-04-20T10:58:55.761Z,19.95
2023-04-20T11:01:23.367Z,16.42
2023-04-20T11:03:52.229Z,18.83
2023-04-20T11:06:20.158Z,31.90
2023-04-20T11:08:48.069Z,18.13
2023-04-20T11:11:27.786Z,14.35
2023-04-20T11:14:08.989Z,17.83
2023-04-20T11:16:49.690Z,31.10
2023-04-20T11:19:25.935Z,21.85
2023-04-20T11:21:53.624Z,26.48
2023-04-20T11:24:25.452Z,31.70
2023-04-20T11:26:58.248Z,14.32
2023-04-20T11:29:30.225Z,24.10
2023-04-20T11:31:58.568Z,19.45
2023-04-20T11:34:26.872Z,22.13
2023-04-20T11:36:56.935Z,19.00
2023-04-20T11:39:29.734Z,30.40
2023-04-20T11:41:57.932Z,18.58
2023-04-20T11:44:27.450Z,21.42
2023-04-20T11:46:57.427Z,40.28
2023-04-20T11:49:26.064Z,22.42
2023-04-20T11:51:53.910Z,22.85
2023-04-20T11:54:25.440Z,19.88
2023-04-20T11:56:53.087Z,18.63
2023-04-20T11:59:21.522Z,22.15
2023-04-20T12:01:49.698Z,37.22
2023-04-20T12:04:17.843Z,39.33
2023-04-20T12:06:46.070Z,26.42
2023-04-20T12:09:14.151Z,21.38
2023-04-20T12:11:41.828Z,29.83
2023-04-20T12:14:10.007Z,24.23
2023-04-20T12:16:37.974Z,20.45
2023-04-20T12:19:05.864Z,28.38
2023-04-20T12:21:33.530Z,21.25
2023-04-20T12:24:01.593Z,27.38
2023-04-20T12:26:37.968Z,19.45
2023-04-20T12:29:07.579Z,32.50
2023-04-20T12:31:36.061Z,38.97
2023-04-20T12:34:04.325Z,28.65
2023-04-20T12:36:32.898Z,20.50
2023-04-20T12:39:01.733Z,19.80
2023-04-20T12:41:29.791Z,20.02
2023-04-20T12:43:57.755Z,24.60
2023-04-20T12:46:25.765Z,19.15
2023-04-20T12:48:53.747Z,23.17
2023-04-20T12:51:21.381Z,17.83
2023-04-20T12:53:49.344Z,20.83
2023-04-20T12:56:17.095Z,21.48
2023-04-20T12:58:45.427Z,32.20
2023-04-20T13:01:13.303Z,29.58
2023-04-20T13:03:42.729Z,23.33
2023-04-20T13:06:14.141Z,27.73
2023-04-20T13:08:42.438Z,18.35
2023-04-20T13:11:12.180Z,23.17
2023-04-20T13:13:40.107Z,31.45
2023-04-20T13:16:09.061Z,21.02
2023-04-20T13:18:37.272Z,26.95
2023-04-20T13:21:04.980Z,23.25
2023-04-20T13:23:32.983Z,18.50
2023-04-20T13:26:01.766Z,34.25
2023-04-20T13:28:30.342Z,22.60
2023-04-20T13:30:57.994Z,24.98
2023-04-20T13:33:26.332Z,20.05
2023-04-20T13:35:53.925Z,26.73
2023-04-20T13:38:22.898Z,20.70
2023-04-20T13:40:50.781Z,34.25
2023-04-20T13:43:21.350Z,27.50
2023-04-20T13:45:49.496Z,25.42
2023-04-20T13:48:17.638Z,29.58
2023-04-20T13:50:45.405Z,23.42
2023-04-20T13:53:17.678Z,17.58
2023-04-20T13:55:45.273Z,28.90
2023-04-20T13:58:14.173Z,17.10
2023-04-20T14:00:41.741Z,18.40
2023-04-20T14:03:10.586Z,28.35
2023-04-20T14:05:40.872Z,20.38
2023-04-20T14:08:08.864Z,30.67
2023-04-20T14:10:38.819Z,18.42
2023-04-20T14:13:08.143Z,25.77
2023-04-20T14:15:35.891Z,22.58
2023-04-20T14:18:03.980Z,19.58
2023-04-20T14:20:31.662Z,18.40
2023-04-20T14:22:59.563Z,19.17
2023-04-20T14:25:27.222Z,18.85
2023-04-20T14:27:55.240Z,23.88
2023-04-20T14:30:23.211Z,19.48
2023-04-20T14:32:58.924Z,17.25
2023-04-20T14:35:27.592Z,18.20
2023-04-20T14:37:55.593Z,23.73
2023-04-20T14:40:23.403Z,25.55
2023-04-20T14:42:51.406Z,32.10
2023-04-20T14:45:19.908Z,13.70
2023-04-20T14:47:53.155Z,16.98
2023-04-20T14:50:20.982Z,14.82
2023-04-20T14:52:49.325Z,10.32
2023-04-20T14:55:17.094Z,12.32
2023-04-20T14:57:45.056Z,23.13
2023-04-20T15:00:13.574Z,19.23
2023-04-20T15:02:41.892Z,13.30
2023-04-20T15:05:11.323Z,21.13
2023-04-20T15:07:39.390Z,12.80
2023-04-20T15:10:07.508Z,22.83
2023-04-20T15:12:35.664Z,17.88
2023-04-20T15:15:03.536Z,26.27
2023-04-20T15:17:31.407Z,16.23
2023-04-20T15:19:59.111Z,13.10
2023-04-20T15:22:26.977Z,15.85
2023-04-20T15:24:54.566Z,13.63
2023-04-20T15:27:22.634Z,16.42
2023-04-20T15:29:50.521Z,14.27
2023-04-20T15:32:18.835Z,15.10
2023-04-20T15:34:46.758Z,16.23
2023-04-20T15:37:14.660Z,15.98
2023-04-20T15:39:42.563Z,16.75
2023-04-20T15:42:11.055Z,14.80
2023-04-20T15:44:40.567Z,16.08
2023-04-20T15:47:08.531Z,17.35
2023-04-20T15:49:40.474Z,13.80
2023-04-20T15:52:08.718Z,17.35
2023-04-20T15:54:37.699Z,9.20
2023-04-20T15:57:05.639Z,15.50
2023-04-20T15:59:33.517Z,14.50
2023-04-20T16:02:01.759Z,13.55
2023-04-20T16:04:29.877Z,12.15
2023-04-20T16:06:57.846Z,18.15
2023-04-20T16:09:25.485Z,8.27
2023-04-20T16:11:53.057Z,18.33
2023-04-20T16:14:20.978Z,12.77
2023-04-20T16:16:49.053Z,11.77
2023-04-20T16:19:16.665Z,14.60
2023-04-20T16:21:44.772Z,10.93
2023-04-20T16:24:12.068Z,8.80
2023-04-20T16:26:41.186Z,13.70
2023-04-20T16:29:08.639Z,16.75
2023-04-20T16:31:37.330Z,19.88
2023-04-20T16:34:04.591Z,17.40
2023-04-20T16:36:33.029Z,17.27
2023-04-20T16:39:05.110Z,12.23
2023-04-20T16:41:32.826Z,13.38
2023-04-20T16:44:00.217Z,22.27
2023-04-20T16:46:27.835Z,11.40
2023-04-20T16:48:55.310Z,14.15
2023-04-20T16:51:22.837Z,11.98
2023-04-20T16:53:50.099Z,14.57
2023-04-20T16:56:17.642Z,19.33
2023-04-20T16:58:45.040Z,21.60
2023-04-20T17:01:13.506Z,20.60
2023-04-20T17:03:41.274Z,19.17
2023-04-20T17:06:09.827Z,21.83
2023-04-20T17:08:37.763Z,29.38
2023-04-20T17:11:06.344Z,25.80
2023-04-20T17:13:34.370Z,17.80
2023-04-20T17:16:02.569Z,17.80
2023-04-20T17:18:30.605Z,18.88
2023-04-20T17:20:58.765Z,13.32
2023-04-20T17:23:26.452Z,16.70
2023-04-20T17:25:54.720Z,18.60
2023-04-20T17:28:22.265Z,8.95
2023-04-20T17:30:49.958Z,14.27
2023-04-20T17:33:17.229Z,22.73
2023-04-20T17:35:46.655Z,21.23
2023-04-20T17:38:14.310Z,13.90
2023-04-20T17:40:41.835Z,24.33
2023-04-20T17:43:09.371Z,18.73
2023-04-20T17:45:37.187Z,12.27
2023-04-20T17:48:05.379Z,20.05
2023-04-20T17:50:34.506Z,20.23
2023-04-20T17:53:06.699Z,15.80
2023-04-20T17:55:35.328Z,24.88
2023-04-20T17:58:02.739Z,32.72
2023-04-20T18:00:30.513Z,43.22
2023-04-20T18:02:58.502Z,35.25
2023-04-20T18:05:27.058Z,31.33
2023-04-20T18:07:54.334Z,26.48
2023-04-20T18:10:21.999Z,35.30
2023-04-20T18:12:49.800Z,29.17
2023-04-20T18:15:17.480Z,27.52
2023-04-20T18:17:44.927Z,18.30
2023-04-20T18:20:12.787Z,28.08
2023-04-20T18:22:40.079Z,34.00
2023-04-20T18:25:07.914Z,32.53
2023-04-20T18:27:35.165Z,41.20
2023-04-20T18:30:02.865Z,22.08
2023-04-20T18:32:31.481Z,24.48
2023-04-20T18:35:00.363Z,26.20
2023-04-20T18:37:27.603Z,11.85
2023-04-20T18:39:55.880Z,26.13
2023-04-20T18:42:23.377Z,15.27
2023-04-20T18:44:53.043Z,14.43
2023-04-20T18:47:22.146Z,13.25
2023-04-20T18:49:50.113Z,15.38
2023-04-20T18:52:19.292Z,19.80
2023-04-20T18:54:47.656Z,21.17
2023-04-20T18:57:15.043Z,25.63
2023-04-20T18:59:42.739Z,23.80
2023-04-20T19:02:10.372Z,18.02
2023-04-20T19:04:38.193Z,15.85
2023-04-20T19:07:05.710Z,27.58
2023-04-20T19:09:33.196Z,18.30
2023-04-20T19:12:01.519Z,14.60
2023-04-20T19:14:29.165Z,19.10
2023-04-20T19:16:56.526Z,13.70
2023-04-20T19:19:24.381Z,39.58
2023-04-20T19:21:51.661Z,24.35
2023-04-20T19:24:19.452Z,22.67
2023-04-20T19:26:47.388Z,21.42
2023-04-20T19:29:14.916Z,26.25
2023-04-20T19:31:42.338Z,20.75
2023-04-20T19:34:10.678Z,25.35
2023-04-20T19:36:37.894Z,24.67
2023-04-20T19:39:07.308Z,23.15
2023-04-20T19:41:35.062Z,22.42
2023-04-20T19:44:06.289Z,26.15
2023-04-20T19:46:33.947Z,21.55
2023-04-20T19:49:02.370Z,24.05
2023-04-20T19:51:31.601Z,27.73
2023-04-20T19:54:00.813Z,32.97
2023-04-20T19:56:28.287Z,39.78
2023-04-20T19:58:55.769Z,24.88
2023-04-20T20:01:23.284Z,31.00
2023-04-20T20:03:51.211Z,25.17
2023-04-20T20:06:19.617Z,21.95
2023-04-20T20:08:47.343Z,23.60
2023-04-20T20:11:14.766Z,24.38
2023-04-20T20:13:42.480Z,31.65
2023-04-20T20:16:12.764Z,31.50
2023-04-20T20:18:40.468Z,31.83
2023-04-20T20:21:07.772Z,30.13
2023-04-20T20:23:35.200Z,26.02
2023-04-20T20:26:02.914Z,25.98
2023-04-20T20:28:30.860Z,20.60
2023-04-20T20:30:58.349Z,22.73
2023-04-20T20:33:26.818Z,26.27
2023-04-20T20:35:55.230Z,32.17
2023-04-20T20:38:22.798Z,25.23
2023-04-20T20:40:50.608Z,39.80
2023-04-20T20:43:19.036Z,35.67
2023-04-20T20:45:47.576Z,24.00
2023-04-20T20:48:15.153Z,21.50
2023-04-20T20:50:42.440Z,22.52
2023-04-20T20:53:10.041Z,43.28
2023-04-20T20:55:37.305Z,21.20
2023-04-20T20:58:04.899Z,21.25
2023-04-20T21:00:33.466Z,20.70
2023-04-20T21:03:01.323Z,21.75
2023-04-20T21:05:28.772Z,23.55
2023-04-20T21:07:56.401Z,18.17
2023-04-20T21:10:23.798Z,19.35
2023-04-20T21:12:51.313Z,28.17
2023-04-20T21:15:18.758Z,19.13
2023-04-20T21:17:46.370Z,15.02
2023-04-20T21:20:13.853Z,18.05
2023-04-20T21:22:41.513Z,17.85
2023-04-20T21:25:09.149Z,24.40
2023-04-20T21:27:36.943Z,24.27
2023-04-20T21:30:05.687Z,25.40
2023-04-20T21:32:33.276Z,24.08
2023-04-20T21:35:00.608Z,20.85
2023-04-20T21:37:28.182Z,22.05
2023-04-20T21:39:55.582Z,20.70
2023-04-20T21:42:23.568Z,22.35
2023-04-20T21:44:53.284Z,23.70
2023-04-20T21:47:24.131Z,25.23
2023-04-20T21:49:52.237Z,21.45
2023-04-20T21:52:19.748Z,24.70
2023-04-20T21:54:47.104Z,25.35
2023-04-20T21:57:15.109Z,22.17
2023-04-20T21:59:42.364Z,18.63
2023-04-20T22:02:10.435Z,23.10
2023-04-20T22:04:38.023Z,36.03
2023-04-20T22:07:05.551Z,25.02
2023-04-20T22:09:33.000Z,28.17
2023-04-20T22:12:02.115Z,26.80
2023-04-20T22:14:30.246Z,25.58
2023-04-20T22:16:58.049Z,27.25
2023-04-20T22:19:25.934Z,20.83
2023-04-20T22:21:53.577Z,28.98
2023-04-20T22:24:21.016Z,26.70
2023-04-20T22:26:48.589Z,21.40
2023-04-20T22:29:15.982Z,22.70
2023-04-20T22:31:43.717Z,21.83
2023-04-20T22:34:12.008Z,23.10
2023-04-20T22:36:39.787Z,27.35
2023-04-20T22:39:09.410Z,25.55
2023-04-20T22:41:37.064Z,21.45
2023-04-20T22:44:04.393Z,21.98
2023-04-20T22:46:32.215Z,27.58
2023-04-20T22:49:00.339Z,24.55
2023-04-20T22:51:29.041Z,25.70
2023-04-20T22:53:56.381Z,25.15
2023-04-20T22:56:24.610Z,27.10
2023-04-20T22:58:52.015Z,21.45
2023-04-20T23:01:19.732Z,23.80
2023-04-20T23:03:47.260Z,22.42
2023-04-20T23:06:18.864Z,24.65
2023-04-20T23:08:46.827Z,19.43
2023-04-20T23:11:17.555Z,17.67
2023-04-20T23:13:46.825Z,24.33
2023-04-20T23:16:14.541Z,22.95
2023-04-20T23:18:41.923Z,21.33
2023-04-20T23:21:09.536Z,28.35
2023-04-20T23:23:36.759Z,24.52
2023-04-20T23:26:04.345Z,19.77
2023-04-20T23:28:31.694Z,21.40
2023-04-20T23:30:59.925Z,20.15
2023-04-20T23:33:27.093Z,21.35
2023-04-20T23:35:54.653Z,22.42
2023-04-20T23:38:21.943Z,18.30
2023-04-20T23:40:49.494Z,25.60
2023-04-20T23:43:16.850Z,21.42
2023-04-20T23:45:44.523Z,20.95
2023-04-20T23:48:11.751Z,21.05
2023-04-20T23:50:39.281Z,17.85
2023-04-20T23:53:07.561Z,18.48
2023-04-20T23:55:35.239Z,25.65
2023-04-20T23:58:02.713Z,17.38
